LTCD

Details ICAO LTCD (ERC)
Name ERZINCAN
Region Turkey
Timezone Europe/Istanbul (UTC+3.0)
Plans Departing 50
Arriving 57
Stats Elevation 3,783 ft / 1,153 m (AMSL)
Location 39.710700° 39.521100°
Runways 2
Magnetic Variation 6.134° E
Sunrise 2019-05-26 02:00:53 UTC / 2019-05-26 05:00:53 Local
Sunset 2019-05-26 16:39:50 UTC / 2019-05-26 19:39:50 Local
Advertisement - Login to hide

Runways

ID Width Length Bearing (true/mag) Surface Threshold Overrun Markings Lighting
11 148 ft / 45 m 9,825 ft / 2,995 m 110.83° / 104.70° CONCRETE 0 ft / 0 m 197 ft / 60 m APP EDGE THRESHOLD
13 137 ft / 42 m 5,890 ft / 1,795 m 127.15° / 121.02° CONCRETE 0 ft / 0 m 0 ft / 0 m APP
29 148 ft / 45 m 9,825 ft / 2,995 m 290.86° / 284.72° CONCRETE 0 ft / 0 m 197 ft / 60 m APP EDGE THRESHOLD CALVERT
31 137 ft / 42 m 5,890 ft / 1,795 m 307.17° / 301.03° CONCRETE 0 ft / 0 m 0 ft / 0 m APP

Map

Weather


0- 5 10 15 20 25 30 35+ Temperature / °C

Clouds and Precipitation
Forecast for 2019-05-26 12:00 UTC. Updated 3 hours ago

Ground ~20,000 ft ~40,000 ft Winds

METAR

LTCD 261150Z 22014KT 190V250 9999 FEW045 SCT100 25/01 Q1016 TEMPO -TSRA

TAF

Not found

Frequencies

Tower 118.50 MHz
Ground 121.90 MHz
Warning: Do not use this data for real-world aviation or navigation. No guarantee of current accuracy is given.